createdAt,value
2022-11-24T00:02:29.708Z,3.87
2022-11-24T00:05:32.040Z,3.10
2022-11-24T00:08:35.397Z,3.33
2022-11-24T00:11:37.814Z,3.83
2022-11-24T00:14:39.999Z,3.12
2022-11-24T00:17:42.186Z,3.42
2022-11-24T00:20:52.091Z,4.43
2022-11-24T00:23:54.710Z,3.72
2022-11-24T00:26:57.132Z,3.70
2022-11-24T00:29:59.652Z,4.03
2022-11-24T00:33:01.827Z,3.20
2022-11-24T00:36:04.207Z,3.72
2022-11-24T00:39:10.096Z,3.37
2022-11-24T00:42:12.257Z,3.83
2022-11-24T00:45:14.483Z,4.80
2022-11-24T00:48:16.737Z,4.80
2022-11-24T00:51:20.025Z,4.62
2022-11-24T00:54:22.344Z,5.90
2022-11-24T00:57:24.512Z,4.90
2022-11-24T01:00:26.733Z,3.65
2022-11-24T01:03:28.952Z,4.37
2022-11-24T01:06:32.553Z,4.05
2022-11-24T01:09:35.025Z,4.87
2022-11-24T01:12:37.194Z,3.42
2022-11-24T01:15:39.923Z,4.03
2022-11-24T01:18:42.161Z,4.18
2022-11-24T01:21:44.401Z,4.82
2022-11-24T01:24:46.638Z,5.45
2022-11-24T01:27:48.923Z,5.68
2022-11-24T01:31:01.038Z,5.12
2022-11-24T01:34:03.331Z,4.28
2022-11-24T01:37:05.532Z,4.45
2022-11-24T01:40:08.490Z,5.12
2022-11-24T01:43:24.844Z,4.25
2022-11-24T01:46:42.439Z,4.20
2022-11-24T01:49:53.754Z,4.43
2022-11-24T01:52:56.991Z,4.40
2022-11-24T01:55:59.409Z,4.75
2022-11-24T01:59:03.475Z,3.90
2022-11-24T02:02:05.878Z,3.97
2022-11-24T02:05:17.555Z,3.65
2022-11-24T02:08:42.884Z,4.37
2022-11-24T02:11:45.478Z,4.85
2022-11-24T02:14:47.684Z,4.50
2022-11-24T02:17:49.879Z,4.62
2022-11-24T02:20:52.218Z,4.55
2022-11-24T02:24:00.827Z,4.25
2022-11-24T02:27:03.709Z,5.32
2022-11-24T02:30:06.217Z,3.75
2022-11-24T02:33:08.555Z,4.43
2022-11-24T02:36:10.913Z,4.87
2022-11-24T02:39:14.144Z,3.70
2022-11-24T02:42:16.355Z,4.12
2022-11-24T02:45:18.675Z,4.50
2022-11-24T02:48:20.831Z,3.55
2022-11-24T02:51:23.136Z,4.60
2022-11-24T02:54:25.402Z,4.85
2022-11-24T02:57:27.587Z,4.60
2022-11-24T03:00:29.777Z,4.47
2022-11-24T03:03:31.998Z,5.10
2022-11-24T03:06:34.193Z,4.55
2022-11-24T03:09:36.473Z,4.47
2022-11-24T03:12:38.704Z,4.85
2022-11-24T03:15:41.403Z,4.55
2022-11-24T03:18:43.615Z,4.70
2022-11-24T03:21:45.816Z,4.97
2022-11-24T03:24:47.961Z,4.28
2022-11-24T03:27:50.139Z,3.95
2022-11-24T03:30:52.731Z,4.95
2022-11-24T03:33:54.892Z,4.55
2022-11-24T03:36:57.076Z,5.03
2022-11-24T03:39:59.261Z,4.40
2022-11-24T03:43:01.386Z,4.65
2022-11-24T03:46:03.624Z,5.22
2022-11-24T03:49:05.892Z,4.50
2022-11-24T03:52:08.793Z,5.05
2022-11-24T03:55:10.934Z,5.87
2022-11-24T03:58:13.103Z,4.95
2022-11-24T04:01:15.423Z,5.57
2022-11-24T04:04:17.748Z,4.35
2022-11-24T04:07:19.980Z,6.55
2022-11-24T04:10:22.209Z,6.87
2022-11-24T04:13:25.638Z,6.03
2022-11-24T04:16:27.881Z,6.10
2022-11-24T04:19:30.670Z,6.75
2022-11-24T04:22:32.922Z,7.00
2022-11-24T04:25:35.607Z,5.18
2022-11-24T04:28:38.573Z,6.00
2022-11-24T04:31:40.807Z,7.18
2022-11-24T04:34:43.218Z,6.82
2022-11-24T04:37:45.687Z,6.45
2022-11-24T04:40:47.846Z,6.18
2022-11-24T04:43:50.684Z,6.70
2022-11-24T04:46:52.941Z,7.25
2022-11-24T04:49:55.456Z,6.95
2022-11-24T04:52:57.627Z,6.93
2022-11-24T04:55:59.884Z,7.47
2022-11-24T04:59:07.808Z,7.80
2022-11-24T05:02:11.123Z,7.00
2022-11-24T05:05:13.460Z,8.35
2022-11-24T05:08:15.775Z,8.65
2022-11-24T05:11:18.356Z,7.37
2022-11-24T05:14:20.525Z,7.72
2022-11-24T05:17:22.889Z,9.30
2022-11-24T05:20:25.531Z,8.18
2022-11-24T05:23:27.695Z,9.18
2022-11-24T05:26:29.925Z,8.13
2022-11-24T05:29:32.108Z,9.93
2022-11-24T05:32:34.353Z,9.43
2022-11-24T05:35:36.696Z,11.65
2022-11-24T05:38:38.860Z,16.37
2022-11-24T05:41:41.981Z,19.15
2022-11-24T05:44:44.139Z,18.17
2022-11-24T05:47:47.146Z,11.68
2022-11-24T05:50:56.550Z,9.40
2022-11-24T05:53:58.867Z,10.15
2022-11-24T05:57:01.086Z,9.60
2022-11-24T06:00:07.259Z,8.20
2022-11-24T06:03:10.884Z,10.07
2022-11-24T06:06:13.157Z,10.50
2022-11-24T06:09:15.733Z,8.93
2022-11-24T06:12:17.988Z,8.75
2022-11-24T06:15:20.360Z,8.80
2022-11-24T06:18:22.500Z,10.18
2022-11-24T06:21:24.688Z,10.32
2022-11-24T06:24:26.914Z,9.88
2022-11-24T06:27:29.048Z,9.45
2022-11-24T06:30:31.242Z,11.15
2022-11-24T06:33:35.120Z,12.27
2022-11-24T06:36:38.194Z,10.45
2022-11-24T06:39:40.335Z,10.35
2022-11-24T06:42:42.469Z,10.88
2022-11-24T06:45:44.622Z,13.10
2022-11-24T06:48:47.380Z,11.52
2022-11-24T06:51:49.827Z,11.20
2022-11-24T06:54:52.051Z,10.60
2022-11-24T06:57:54.223Z,10.43
2022-11-24T07:00:56.476Z,10.00
2022-11-24T07:03:59.197Z,9.90
2022-11-24T07:07:02.628Z,11.00
2022-11-24T07:10:05.329Z,8.48
2022-11-24T07:13:08.131Z,10.25
2022-11-24T07:16:15.426Z,9.48
2022-11-24T07:19:23.129Z,8.30
2022-11-24T07:22:26.950Z,8.77
2022-11-24T07:25:29.092Z,7.82
2022-11-24T07:28:31.569Z,7.50
2022-11-24T07:31:33.964Z,7.82
2022-11-24T07:34:36.456Z,7.60
2022-11-24T07:37:38.825Z,8.93
2022-11-24T07:40:41.045Z,9.07
2022-11-24T07:43:43.213Z,7.68
2022-11-24T07:46:45.497Z,9.52
2022-11-24T07:49:47.716Z,6.53
2022-11-24T07:52:50.089Z,7.45
2022-11-24T07:55:56.564Z,7.65
2022-11-24T07:58:58.829Z,6.45
2022-11-24T08:02:01.769Z,7.90
2022-11-24T08:05:04.192Z,6.87
2022-11-24T08:08:06.370Z,8.25
2022-11-24T08:11:11.252Z,7.87
2022-11-24T08:14:13.447Z,6.93
2022-11-24T08:17:15.873Z,7.15
2022-11-24T08:20:18.179Z,8.27
2022-11-24T08:23:20.383Z,6.75
2022-11-24T08:26:23.064Z,8.02
2022-11-24T08:29:29.502Z,7.68
2022-11-24T08:32:31.674Z,6.60
2022-11-24T08:35:37.646Z,7.40
2022-11-24T08:38:40.388Z,7.10
2022-11-24T08:41:42.599Z,6.68
2022-11-24T08:44:44.776Z,7.75
2022-11-24T08:47:52.510Z,6.30
2022-11-24T08:50:54.798Z,5.05
2022-11-24T08:53:59.166Z,6.70
2022-11-24T08:57:01.324Z,6.00
2022-11-24T09:00:05.537Z,7.18
2022-11-24T09:03:09.594Z,5.18
2022-11-24T09:06:11.892Z,5.80
2022-11-24T09:09:14.134Z,5.20
2022-11-24T09:12:16.341Z,5.28
2022-11-24T09:15:20.343Z,5.57
2022-11-24T09:18:25.237Z,7.00
2022-11-24T09:21:34.242Z,6.12
2022-11-24T09:24:36.519Z,6.00
2022-11-24T09:27:38.820Z,6.10
2022-11-24T09:30:41.039Z,6.85
2022-11-24T09:33:43.893Z,5.68
2022-11-24T09:36:46.134Z,5.50
2022-11-24T09:39:48.327Z,5.50
2022-11-24T09:42:54.427Z,4.95
2022-11-24T09:46:13.650Z,6.25
2022-11-24T09:49:22.362Z,5.90
2022-11-24T09:52:45.930Z,6.72
2022-11-24T09:55:52.677Z,5.87
2022-11-24T09:59:00.510Z,5.32
2022-11-24T10:02:02.873Z,5.22
2022-11-24T10:05:06.109Z,5.85
2022-11-24T10:08:24.027Z,6.93
2022-11-24T10:11:35.021Z,5.68
2022-11-24T10:15:05.053Z,20.92
2022-11-24T10:18:17.266Z,5.50
2022-11-24T10:21:25.563Z,6.53
2022-11-24T10:24:46.675Z,5.32
2022-11-24T10:28:18.024Z,5.45
2022-11-24T10:31:33.741Z,5.15
2022-11-24T10:34:39.623Z,6.75
2022-11-24T10:37:47.240Z,6.43
2022-11-24T10:40:57.881Z,6.57
2022-11-24T10:44:00.513Z,6.53
2022-11-24T10:47:03.710Z,6.10
2022-11-24T10:50:26.013Z,7.28
2022-11-24T10:53:30.414Z,7.30
2022-11-24T10:56:40.416Z,6.82
2022-11-24T10:59:42.710Z,6.53
2022-11-24T11:02:46.023Z,7.37
2022-11-24T11:06:09.124Z,5.87
2022-11-24T11:09:14.469Z,6.18
2022-11-24T11:12:43.739Z,5.85
2022-11-24T11:15:46.715Z,5.95
2022-11-24T11:18:49.568Z,6.10
2022-11-24T11:22:02.337Z,6.55
2022-11-24T11:25:19.109Z,6.32
2022-11-24T11:28:28.243Z,6.75
2022-11-24T11:31:34.383Z,6.68
2022-11-24T11:34:36.953Z,6.07
2022-11-24T11:37:39.431Z,6.20
2022-11-24T11:40:43.823Z,7.22
2022-11-24T11:43:47.387Z,7.47
2022-11-24T11:46:49.687Z,6.40
2022-11-24T11:49:52.954Z,7.12
2022-11-24T11:53:01.308Z,14.82
2022-11-24T11:56:03.397Z,7.07
2022-11-24T11:59:36.459Z,7.18
2022-11-24T12:03:10.503Z,6.43
2022-11-24T12:06:25.409Z,6.90
2022-11-24T12:09:41.518Z,6.47
2022-11-24T12:12:53.875Z,5.20
2022-11-24T12:15:58.021Z,5.97
2022-11-24T12:19:25.751Z,6.93
2022-11-24T12:22:46.010Z,5.80
2022-11-24T12:25:54.605Z,5.78
2022-11-24T12:29:28.071Z,4.97
2022-11-24T12:32:35.833Z,4.80
2022-11-24T12:35:56.606Z,6.25
2022-11-24T12:39:18.953Z,5.77
2022-11-24T12:42:27.155Z,5.97
2022-11-24T12:45:38.782Z,6.05
2022-11-24T12:49:08.410Z,5.18
2022-11-24T12:52:21.295Z,5.90
2022-11-24T12:55:23.785Z,5.65
2022-11-24T12:58:32.975Z,5.43
2022-11-24T13:01:40.987Z,6.47
2022-11-24T13:04:50.267Z,5.37
2022-11-24T13:08:03.114Z,5.25
2022-11-24T13:11:23.526Z,6.20
2022-11-24T13:14:32.731Z,5.37
2022-11-24T13:17:50.315Z,5.22
2022-11-24T13:20:58.026Z,5.03
2022-11-24T13:24:03.923Z,5.32
2022-11-24T13:27:15.405Z,4.05
2022-11-24T13:33:38.660Z,4.15
2022-11-24T13:36:59.168Z,4.87
2022-11-24T13:40:22.571Z,4.47
2022-11-24T13:43:25.007Z,4.90
2022-11-24T13:47:15.067Z,5.50
2022-11-24T13:50:21.384Z,4.80
2022-11-24T13:53:53.394Z,5.32
2022-11-24T14:00:35.069Z,5.25
2022-11-24T14:07:25.976Z,5.72
2022-11-24T14:10:34.022Z,5.15
2022-11-24T14:13:36.178Z,5.12
2022-11-24T14:16:38.410Z,4.72
2022-11-24T14:19:44.953Z,5.25
2022-11-24T14:22:47.148Z,5.03
2022-11-24T14:25:50.556Z,3.83
2022-11-24T14:28:53.790Z,5.37
2022-11-24T14:31:58.641Z,5.32
2022-11-24T14:35:00.841Z,5.20
2022-11-24T14:38:05.055Z,4.55
2022-11-24T14:41:26.199Z,5.57
2022-11-24T14:44:30.999Z,4.70
2022-11-24T14:47:38.066Z,7.25
2022-11-24T14:50:40.351Z,10.40
2022-11-24T14:53:44.199Z,7.55
2022-11-24T14:57:19.954Z,5.43
2022-11-24T15:00:24.920Z,5.65
2022-11-24T15:03:27.242Z,7.32
2022-11-24T15:06:29.503Z,7.18
2022-11-24T15:09:31.658Z,7.18
2022-11-24T15:12:39.244Z,6.25
2022-11-24T15:15:47.712Z,5.87
2022-11-24T15:18:57.471Z,5.75
2022-11-24T15:21:59.741Z,7.07
2022-11-24T15:25:02.860Z,8.30
2022-11-24T15:28:05.147Z,8.05
2022-11-24T15:31:12.040Z,7.10
2022-11-24T15:34:14.624Z,6.97
2022-11-24T15:37:16.788Z,7.18
2022-11-24T15:40:19.494Z,7.03
2022-11-24T15:43:38.088Z,7.07
2022-11-24T15:46:40.294Z,6.82
2022-11-24T15:49:42.522Z,6.25
2022-11-24T15:52:45.795Z,7.35
2022-11-24T15:55:48.729Z,7.28
2022-11-24T15:58:51.431Z,6.45
2022-11-24T16:01:53.721Z,6.93
2022-11-24T16:04:55.873Z,8.45
2022-11-24T16:07:58.136Z,9.30
2022-11-24T16:11:00.377Z,9.50
2022-11-24T16:14:02.601Z,9.35
2022-11-24T16:17:05.165Z,14.02
2022-11-24T16:20:07.754Z,8.98
2022-11-24T16:23:09.940Z,7.90
2022-11-24T16:26:12.096Z,7.30
2022-11-24T16:29:15.513Z,7.05
2022-11-24T16:32:17.665Z,6.82
2022-11-24T16:35:20.200Z,7.62
2022-11-24T16:38:22.604Z,9.18
2022-11-24T16:41:25.003Z,12.88
2022-11-24T16:44:27.339Z,12.35
2022-11-24T16:47:29.765Z,10.20
2022-11-24T16:50:31.926Z,8.98
2022-11-24T16:53:34.475Z,8.45
2022-11-24T16:56:36.682Z,6.50
2022-11-24T16:59:39.096Z,6.43
2022-11-24T17:02:41.656Z,6.43
2022-11-24T17:05:43.946Z,5.10
2022-11-24T17:08:46.699Z,6.82
2022-11-24T17:11:48.926Z,6.78
2022-11-24T17:15:16.345Z,7.22
2022-11-24T17:18:24.395Z,6.32
2022-11-24T17:21:28.070Z,8.43
2022-11-24T17:24:30.345Z,5.60
2022-11-24T17:27:32.980Z,6.18
2022-11-24T17:30:36.923Z,5.53
2022-11-24T17:33:39.414Z,6.47
2022-11-24T17:36:44.696Z,6.10
2022-11-24T17:39:59.999Z,6.15
2022-11-24T17:43:09.300Z,6.18
2022-11-24T17:46:11.782Z,6.18
2022-11-24T17:49:14.492Z,7.03
2022-11-24T17:52:18.219Z,5.82
2022-11-24T17:55:20.526Z,6.90
2022-11-24T17:58:22.938Z,7.25
2022-11-24T18:01:26.629Z,9.88
2022-11-24T18:04:29.625Z,7.50
2022-11-24T18:07:32.084Z,7.22
2022-11-24T18:10:34.461Z,7.00
2022-11-24T18:16:59.838Z,6.45
2022-11-24T18:20:02.204Z,6.82
2022-11-24T18:23:06.121Z,7.65
2022-11-24T18:26:11.822Z,7.03
2022-11-24T18:29:14.740Z,9.38
2022-11-24T18:32:17.105Z,7.45
2022-11-24T18:35:19.521Z,8.40
2022-11-24T18:38:22.018Z,9.18
2022-11-24T18:41:24.456Z,8.85
2022-11-24T18:44:26.996Z,9.68
2022-11-24T18:47:29.348Z,7.68
2022-11-24T18:50:31.492Z,8.25
2022-11-24T18:53:34.535Z,5.45
2022-11-24T18:56:36.968Z,7.65
2022-11-24T18:59:39.135Z,8.10
2022-11-24T19:02:41.645Z,6.10
2022-11-24T19:05:43.935Z,7.95
2022-11-24T19:08:47.474Z,6.00
2022-11-24T19:11:49.984Z,6.57
2022-11-24T19:14:52.463Z,6.35
2022-11-24T19:17:54.745Z,5.87
2022-11-24T19:20:57.572Z,11.40
2022-11-24T19:24:04.992Z,6.03
2022-11-24T19:27:10.682Z,6.20
2022-11-24T19:30:17.268Z,5.45
2022-11-24T19:33:21.520Z,6.40
2022-11-24T19:36:24.230Z,6.72
2022-11-24T19:39:26.463Z,5.65
2022-11-24T19:42:28.951Z,6.22
2022-11-24T19:45:32.676Z,5.47
2022-11-24T19:48:37.805Z,7.15
2022-11-24T19:51:40.788Z,5.47
2022-11-24T19:54:43.042Z,6.22
2022-11-24T19:57:45.480Z,5.82
2022-11-24T20:00:47.943Z,11.38
2022-11-24T20:03:59.063Z,11.02
2022-11-24T20:07:01.549Z,9.68
2022-11-24T20:10:07.904Z,8.85
2022-11-24T20:13:10.584Z,8.90
2022-11-24T20:16:13.011Z,5.93
2022-11-24T20:19:16.887Z,7.15
2022-11-24T20:22:19.463Z,5.70
2022-11-24T20:25:22.263Z,6.57
2022-11-24T20:28:24.726Z,6.68
2022-11-24T20:31:32.905Z,6.22
2022-11-24T20:34:37.272Z,6.18
2022-11-24T20:37:39.693Z,5.90
2022-11-24T20:40:42.136Z,5.95
2022-11-24T20:43:45.548Z,6.43
2022-11-24T20:46:48.298Z,5.35
2022-11-24T20:49:50.772Z,6.12
2022-11-24T20:52:53.243Z,6.28
2022-11-24T20:56:12.773Z,6.55
2022-11-24T20:59:17.965Z,5.80
2022-11-24T21:02:21.174Z,4.95
2022-11-24T21:05:24.244Z,6.00
2022-11-24T21:08:26.669Z,6.72
2022-11-24T21:11:30.014Z,6.28
2022-11-24T21:14:35.237Z,7.12
2022-11-24T21:17:39.124Z,5.82
2022-11-24T21:20:41.968Z,6.80
2022-11-24T21:23:46.972Z,5.95
2022-11-24T21:26:51.782Z,6.55
2022-11-24T21:29:54.124Z,6.22
2022-11-24T21:32:56.316Z,6.45
2022-11-24T21:36:05.725Z,7.12
2022-11-24T21:39:12.711Z,7.20
2022-11-24T21:42:14.970Z,7.45
2022-11-24T21:45:17.209Z,7.43
2022-11-24T21:48:19.380Z,7.90
2022-11-24T21:51:21.552Z,6.03
2022-11-24T21:54:23.871Z,7.72
2022-11-24T21:57:26.460Z,6.65
2022-11-24T22:00:28.656Z,6.78
2022-11-24T22:03:31.010Z,7.12
2022-11-24T22:06:33.403Z,6.80
2022-11-24T22:09:35.600Z,6.95
2022-11-24T22:12:37.774Z,5.50
2022-11-24T22:15:40.289Z,6.90
2022-11-24T22:18:43.901Z,6.57
2022-11-24T22:21:46.265Z,6.00
2022-11-24T22:24:48.424Z,5.87
2022-11-24T22:27:50.635Z,5.93
2022-11-24T22:30:52.897Z,6.60
2022-11-24T22:33:55.753Z,6.10
2022-11-24T22:36:57.940Z,6.00
2022-11-24T22:40:00.142Z,7.43
2022-11-24T22:43:02.297Z,5.95
2022-11-24T22:46:12.321Z,7.20
2022-11-24T22:49:14.587Z,7.28
2022-11-24T22:52:16.750Z,7.20
2022-11-24T22:55:18.948Z,8.13
2022-11-24T22:58:21.166Z,8.57
2022-11-24T23:01:24.905Z,7.20
2022-11-24T23:04:27.170Z,7.80
2022-11-24T23:07:29.641Z,7.80
2022-11-24T23:10:32.563Z,6.72
2022-11-24T23:13:34.910Z,6.40
2022-11-24T23:16:37.286Z,5.53
2022-11-24T23:19:39.506Z,6.62
2022-11-24T23:22:41.673Z,7.35
2022-11-24T23:25:43.846Z,6.00
2022-11-24T23:28:46.151Z,6.18
2022-11-24T23:31:48.386Z,5.62
2022-11-24T23:34:50.949Z,6.80
2022-11-24T23:38:07.111Z,5.47
2022-11-24T23:41:12.262Z,7.00
2022-11-24T23:44:15.411Z,5.75
2022-11-24T23:47:17.627Z,6.47
2022-11-24T23:50:19.835Z,5.18
2022-11-24T23:53:21.963Z,5.35
2022-11-24T23:56:31.617Z,5.90
2022-11-24T23:59:33.797Z,5.80
